sensor_id;sensor_type;location;lat;lon;timestamp;temperature;humidity
12634;DHT22;6382;48.614;8.880;2023-03-02T00:01:36;-1.00;99.90
12634;DHT22;6382;48.614;8.880;2023-03-02T00:04:04;-0.90;99.90
12634;DHT22;6382;48.614;8.880;2023-03-02T00:06:31;-1.00;99.90
12634;DHT22;6382;48.614;8.880;2023-03-02T00:08:59;-0.90;99.90
12634;DHT22;6382;48.614;8.880;2023-03-02T00:11:28;-1.00;99.90
12634;DHT22;6382;48.614;8.880;2023-03-02T00:13:55;0.20;99.90
12634;DHT22;6382;48.614;8.880;2023-03-02T00:16:22;-1.00;99.90
12634;DHT22;6382;48.614;8.880;2023-03-02T00:18:49;-1.00;99.90
12634;DHT22;6382;48.614;8.880;2023-03-02T00:21:15;-1.00;99.90
12634;DHT22;6382;48.614;8.880;2023-03-02T00:23:42;-1.00;99.90
12634;DHT22;6382;48.614;8.880;2023-03-02T00:26:10;-1.00;99.90
12634;DHT22;6382;48.614;8.880;2023-03-02T00:28:36;-1.00;99.90
12634;DHT22;6382;48.614;8.880;2023-03-02T00:31:03;-1.00;99.90
12634;DHT22;6382;48.614;8.880;2023-03-02T00:33:31;-1.00;99.90
12634;DHT22;6382;48.614;8.880;2023-03-02T00:35:57;-1.00;99.90
12634;DHT22;6382;48.614;8.880;2023-03-02T00:38:24;-1.00;99.90
12634;DHT22;6382;48.614;8.880;2023-03-02T00:40:53;-1.10;99.90
12634;DHT22;6382;48.614;8.880;2023-03-02T00:43:21;-1.10;99.90
12634;DHT22;6382;48.614;8.880;2023-03-02T00:45:53;-1.10;99.90
12634;DHT22;6382;48.614;8.880;2023-03-02T00:48:20;-1.10;99.90
12634;DHT22;6382;48.614;8.880;2023-03-02T00:50:46;-1.10;99.90
12634;DHT22;6382;48.614;8.880;2023-03-02T00:53:13;-1.10;99.90
12634;DHT22;6382;48.614;8.880;2023-03-02T00:55:40;-1.10;99.90
12634;DHT22;6382;48.614;8.880;2023-03-02T00:58:06;-1.10;99.90
12634;DHT22;6382;48.614;8.880;2023-03-02T01:00:33;-1.10;99.90
12634;DHT22;6382;48.614;8.880;2023-03-02T01:03:01;-1.10;99.90
12634;DHT22;6382;48.614;8.880;2023-03-02T01:05:27;-1.10;99.90
12634;DHT22;6382;48.614;8.880;2023-03-02T01:07:54;-1.10;99.90
12634;DHT22;6382;48.614;8.880;2023-03-02T01:10:20;-1.10;99.90
12634;DHT22;6382;48.614;8.880;2023-03-02T01:12:47;-1.10;99.90
12634;DHT22;6382;48.614;8.880;2023-03-02T01:15:14;-1.10;99.90
12634;DHT22;6382;48.614;8.880;2023-03-02T01:17:40;-0.90;99.90
12634;DHT22;6382;48.614;8.880;2023-03-02T01:20:10;-1.10;99.90
12634;DHT22;6382;48.614;8.880;2023-03-02T01:22:36;-1.20;99.90
12634;DHT22;6382;48.614;8.880;2023-03-02T01:25:03;-1.20;99.90
12634;DHT22;6382;48.614;8.880;2023-03-02T01:27:30;-1.20;99.90
12634;DHT22;6382;48.614;8.880;2023-03-02T01:29:57;-1.20;99.90
12634;DHT22;6382;48.614;8.880;2023-03-02T01:32:23;1.10;99.90
12634;DHT22;6382;48.614;8.880;2023-03-02T01:34:50;-1.30;99.90
12634;DHT22;6382;48.614;8.880;2023-03-02T01:37:17;-1.30;99.90
12634;DHT22;6382;48.614;8.880;2023-03-02T01:39:43;-1.40;99.90
12634;DHT22;6382;48.614;8.880;2023-03-02T01:42:10;-1.40;99.90
12634;DHT22;6382;48.614;8.880;2023-03-02T01:44:38;-1.40;99.90
12634;DHT22;6382;48.614;8.880;2023-03-02T01:47:10;-0.30;99.90
12634;DHT22;6382;48.614;8.880;2023-03-02T01:49:41;-1.50;99.90
12634;DHT22;6382;48.614;8.880;2023-03-02T01:52:09;-1.50;99.90
12634;DHT22;6382;48.614;8.880;2023-03-02T01:54:38;-1.50;99.90
12634;DHT22;6382;48.614;8.880;2023-03-02T01:57:05;-1.50;99.90
12634;DHT22;6382;48.614;8.880;2023-03-02T01:59:34;-1.50;99.90
12634;DHT22;6382;48.614;8.880;2023-03-02T02:02:02;-1.50;99.90
12634;DHT22;6382;48.614;8.880;2023-03-02T02:04:30;-1.50;99.90
12634;DHT22;6382;48.614;8.880;2023-03-02T02:07:01;-1.50;99.90
12634;DHT22;6382;48.614;8.880;2023-03-02T02:09:29;-1.50;99.90
12634;DHT22;6382;48.614;8.880;2023-03-02T02:11:56;-1.50;99.90
12634;DHT22;6382;48.614;8.880;2023-03-02T02:14:23;-1.60;99.90
12634;DHT22;6382;48.614;8.880;2023-03-02T02:16:50;-1.50;99.90
12634;DHT22;6382;48.614;8.880;2023-03-02T02:22:02;-1.60;99.90
12634;DHT22;6382;48.614;8.880;2023-03-02T02:26:55;-1.50;99.90
12634;DHT22;6382;48.614;8.880;2023-03-02T02:29:24;-1.50;99.90
12634;DHT22;6382;48.614;8.880;2023-03-02T02:32:02;-1.50;99.90
12634;DHT22;6382;48.614;8.880;2023-03-02T02:34:40;-1.50;99.90
12634;DHT22;6382;48.614;8.880;2023-03-02T02:37:16;-3.10;99.90
12634;DHT22;6382;48.614;8.880;2023-03-02T02:39:45;-1.50;99.90
12634;DHT22;6382;48.614;8.880;2023-03-02T02:42:17;-1.50;99.90
12634;DHT22;6382;48.614;8.880;2023-03-02T02:44:45;-1.50;99.90
12634;DHT22;6382;48.614;8.880;2023-03-02T02:47:16;-1.50;99.90
12634;DHT22;6382;48.614;8.880;2023-03-02T02:49:43;-1.40;99.90
12634;DHT22;6382;48.614;8.880;2023-03-02T02:52:11;-1.40;99.90
12634;DHT22;6382;48.614;8.880;2023-03-02T02:54:39;-1.40;99.90
12634;DHT22;6382;48.614;8.880;2023-03-02T02:57:07;-1.40;99.90
12634;DHT22;6382;48.614;8.880;2023-03-02T02:59:35;-1.50;99.90
12634;DHT22;6382;48.614;8.880;2023-03-02T03:02:05;-1.40;99.90
12634;DHT22;6382;48.614;8.880;2023-03-02T03:04:32;-1.00;99.90
12634;DHT22;6382;48.614;8.880;2023-03-02T03:07:00;-1.50;99.90
12634;DHT22;6382;48.614;8.880;2023-03-02T03:09:29;-1.50;99.90
12634;DHT22;6382;48.614;8.880;2023-03-02T03:11:59;-1.50;99.90
12634;DHT22;6382;48.614;8.880;2023-03-02T03:14:32;-1.60;99.90
12634;DHT22;6382;48.614;8.880;2023-03-02T03:16:59;-1.60;99.90
12634;DHT22;6382;48.614;8.880;2023-03-02T03:19:28;-1.60;99.90
12634;DHT22;6382;48.614;8.880;2023-03-02T03:21:56;-1.60;99.90
12634;DHT22;6382;48.614;8.880;2023-03-02T03:24:23;-1.60;99.90
12634;DHT22;6382;48.614;8.880;2023-03-02T03:26:50;-1.70;99.90
12634;DHT22;6382;48.614;8.880;2023-03-02T03:29:17;-1.70;99.90
12634;DHT22;6382;48.614;8.880;2023-03-02T03:31:44;-1.70;99.90
12634;DHT22;6382;48.614;8.880;2023-03-02T03:34:11;-1.70;99.90
12634;DHT22;6382;48.614;8.880;2023-03-02T03:36:37;-1.70;99.90
12634;DHT22;6382;48.614;8.880;2023-03-02T03:39:04;-1.70;99.90
12634;DHT22;6382;48.614;8.880;2023-03-02T03:41:31;-1.80;99.90
12634;DHT22;6382;48.614;8.880;2023-03-02T03:43:58;-1.80;99.90
12634;DHT22;6382;48.614;8.880;2023-03-02T03:46:24;-1.80;99.90
12634;DHT22;6382;48.614;8.880;2023-03-02T03:48:51;-1.90;99.90
12634;DHT22;6382;48.614;8.880;2023-03-02T03:51:18;-1.80;99.90
12634;DHT22;6382;48.614;8.880;2023-03-02T03:53:45;-1.80;99.90
12634;DHT22;6382;48.614;8.880;2023-03-02T03:56:11;-1.90;99.90
12634;DHT22;6382;48.614;8.880;2023-03-02T03:58:38;-1.90;99.90
12634;DHT22;6382;48.614;8.880;2023-03-02T04:01:05;-1.80;99.90
12634;DHT22;6382;48.614;8.880;2023-03-02T04:03:32;-0.90;99.90
12634;DHT22;6382;48.614;8.880;2023-03-02T04:05:59;-1.90;99.90
12634;DHT22;6382;48.614;8.880;2023-03-02T04:08:26;-1.80;99.90
12634;DHT22;6382;48.614;8.880;2023-03-02T04:10:52;-1.80;99.90
12634;DHT22;6382;48.614;8.880;2023-03-02T04:13:19;-1.80;99.90
12634;DHT22;6382;48.614;8.880;2023-03-02T04:15:45;-1.80;99.90
12634;DHT22;6382;48.614;8.880;2023-03-02T04:18:12;-1.80;99.90
12634;DHT22;6382;48.614;8.880;2023-03-02T04:20:39;-1.80;99.90
12634;DHT22;6382;48.614;8.880;2023-03-02T04:23:06;-1.80;99.90
12634;DHT22;6382;48.614;8.880;2023-03-02T04:25:33;-0.40;99.90
12634;DHT22;6382;48.614;8.880;2023-03-02T04:27:59;-1.70;99.90
12634;DHT22;6382;48.614;8.880;2023-03-02T04:30:26;-1.70;99.90
12634;DHT22;6382;48.614;8.880;2023-03-02T04:32:53;-1.70;99.90
12634;DHT22;6382;48.614;8.880;2023-03-02T04:35:20;-1.60;99.90
12634;DHT22;6382;48.614;8.880;2023-03-02T04:37:47;-1.00;99.90
12634;DHT22;6382;48.614;8.880;2023-03-02T04:40:14;-1.50;99.90
12634;DHT22;6382;48.614;8.880;2023-03-02T04:42:41;-1.50;99.90
12634;DHT22;6382;48.614;8.880;2023-03-02T04:45:10;-1.50;99.90
12634;DHT22;6382;48.614;8.880;2023-03-02T04:47:37;-1.50;99.90
12634;DHT22;6382;48.614;8.880;2023-03-02T04:50:04;-1.50;99.90
12634;DHT22;6382;48.614;8.880;2023-03-02T04:52:31;-1.50;99.90
12634;DHT22;6382;48.614;8.880;2023-03-02T04:54:57;-1.50;99.90
12634;DHT22;6382;48.614;8.880;2023-03-02T04:57:24;-1.50;99.90
12634;DHT22;6382;48.614;8.880;2023-03-02T04:59:51;-1.40;99.90
12634;DHT22;6382;48.614;8.880;2023-03-02T05:02:17;-1.40;99.90
12634;DHT22;6382;48.614;8.880;2023-03-02T05:04:44;-1.40;99.90
12634;DHT22;6382;48.614;8.880;2023-03-02T05:07:11;-1.40;99.90
12634;DHT22;6382;48.614;8.880;2023-03-02T05:09:38;-1.40;99.90
12634;DHT22;6382;48.614;8.880;2023-03-02T05:12:04;-1.40;99.90
12634;DHT22;6382;48.614;8.880;2023-03-02T05:14:32;-1.30;99.90
12634;DHT22;6382;48.614;8.880;2023-03-02T05:16:58;-1.30;99.90
12634;DHT22;6382;48.614;8.880;2023-03-02T05:19:25;-1.30;99.90
12634;DHT22;6382;48.614;8.880;2023-03-02T05:21:52;-1.30;99.90
12634;DHT22;6382;48.614;8.880;2023-03-02T05:24:19;-1.20;99.90
12634;DHT22;6382;48.614;8.880;2023-03-02T05:26:45;-1.20;99.90
12634;DHT22;6382;48.614;8.880;2023-03-02T05:29:12;-1.20;99.90
12634;DHT22;6382;48.614;8.880;2023-03-02T05:31:40;-1.20;99.90
12634;DHT22;6382;48.614;8.880;2023-03-02T05:34:08;-1.20;99.90
12634;DHT22;6382;48.614;8.880;2023-03-02T05:36:36;-1.20;99.90
12634;DHT22;6382;48.614;8.880;2023-03-02T05:39:04;-1.20;99.90
12634;DHT22;6382;48.614;8.880;2023-03-02T05:41:31;-1.20;99.90
12634;DHT22;6382;48.614;8.880;2023-03-02T05:43:58;-1.10;99.90
12634;DHT22;6382;48.614;8.880;2023-03-02T05:46:24;-1.10;99.90
12634;DHT22;6382;48.614;8.880;2023-03-02T05:48:51;0.20;99.90
12634;DHT22;6382;48.614;8.880;2023-03-02T05:51:18;-0.80;99.90
12634;DHT22;6382;48.614;8.880;2023-03-02T05:53:45;-1.10;99.90
12634;DHT22;6382;48.614;8.880;2023-03-02T05:56:12;-1.10;99.90
12634;DHT22;6382;48.614;8.880;2023-03-02T05:58:38;-1.00;99.90
12634;DHT22;6382;48.614;8.880;2023-03-02T06:01:09;-1.00;99.90
12634;DHT22;6382;48.614;8.880;2023-03-02T06:03:40;-1.10;99.90
12634;DHT22;6382;48.614;8.880;2023-03-02T06:06:07;-1.00;99.90
12634;DHT22;6382;48.614;8.880;2023-03-02T06:08:34;-1.00;99.90
12634;DHT22;6382;48.614;8.880;2023-03-02T06:11:06;-1.00;99.90
12634;DHT22;6382;48.614;8.880;2023-03-02T06:13:33;-1.00;99.90
12634;DHT22;6382;48.614;8.880;2023-03-02T06:16:00;-1.00;99.90
12634;DHT22;6382;48.614;8.880;2023-03-02T06:18:26;-1.00;99.90
12634;DHT22;6382;48.614;8.880;2023-03-02T06:20:56;-0.90;99.90
12634;DHT22;6382;48.614;8.880;2023-03-02T06:23:23;-1.00;99.90
12634;DHT22;6382;48.614;8.880;2023-03-02T06:25:50;0.40;99.90
12634;DHT22;6382;48.614;8.880;2023-03-02T06:28:17;-0.90;99.90
12634;DHT22;6382;48.614;8.880;2023-03-02T06:30:47;0.70;99.90
12634;DHT22;6382;48.614;8.880;2023-03-02T06:33:15;-0.90;99.90
12634;DHT22;6382;48.614;8.880;2023-03-02T06:35:42;-0.80;99.90
12634;DHT22;6382;48.614;8.880;2023-03-02T06:38:09;-0.80;99.90
12634;DHT22;6382;48.614;8.880;2023-03-02T06:40:35;-0.80;99.90
12634;DHT22;6382;48.614;8.880;2023-03-02T06:43:02;-0.80;99.90
12634;DHT22;6382;48.614;8.880;2023-03-02T06:45:29;-0.80;99.90
12634;DHT22;6382;48.614;8.880;2023-03-02T06:47:59;-0.80;99.90
12634;DHT22;6382;48.614;8.880;2023-03-02T06:50:26;-0.80;99.90
12634;DHT22;6382;48.614;8.880;2023-03-02T06:52:53;-0.80;99.90
12634;DHT22;6382;48.614;8.880;2023-03-02T06:55:20;-0.70;99.90
12634;DHT22;6382;48.614;8.880;2023-03-02T06:57:47;-0.70;99.90
12634;DHT22;6382;48.614;8.880;2023-03-02T07:00:14;0.80;99.90
12634;DHT22;6382;48.614;8.880;2023-03-02T07:02:51;-0.60;99.90
12634;DHT22;6382;48.614;8.880;2023-03-02T07:05:18;-0.60;99.90
12634;DHT22;6382;48.614;8.880;2023-03-02T07:07:45;-0.60;99.90
12634;DHT22;6382;48.614;8.880;2023-03-02T07:10:12;-0.60;99.90
12634;DHT22;6382;48.614;8.880;2023-03-02T07:12:39;0.80;99.90
12634;DHT22;6382;48.614;8.880;2023-03-02T07:15:06;-0.50;99.90
12634;DHT22;6382;48.614;8.880;2023-03-02T07:17:37;-0.50;99.90
12634;DHT22;6382;48.614;8.880;2023-03-02T07:20:04;-0.50;99.90
12634;DHT22;6382;48.614;8.880;2023-03-02T07:22:31;-0.50;99.90
12634;DHT22;6382;48.614;8.880;2023-03-02T07:24:58;-0.40;99.90
12634;DHT22;6382;48.614;8.880;2023-03-02T07:27:25;-0.40;99.90
12634;DHT22;6382;48.614;8.880;2023-03-02T07:29:52;-0.40;99.90
12634;DHT22;6382;48.614;8.880;2023-03-02T07:32:18;-0.40;99.90
12634;DHT22;6382;48.614;8.880;2023-03-02T07:34:45;-0.30;99.90
12634;DHT22;6382;48.614;8.880;2023-03-02T07:37:11;-0.30;99.90
12634;DHT22;6382;48.614;8.880;2023-03-02T07:39:38;-0.30;99.90
12634;DHT22;6382;48.614;8.880;2023-03-02T07:42:05;-0.30;99.90
12634;DHT22;6382;48.614;8.880;2023-03-02T07:44:34;-0.30;99.90
12634;DHT22;6382;48.614;8.880;2023-03-02T07:47:01;1.40;99.90
12634;DHT22;6382;48.614;8.880;2023-03-02T07:49:27;-0.30;99.90
12634;DHT22;6382;48.614;8.880;2023-03-02T07:51:54;-0.30;99.90
12634;DHT22;6382;48.614;8.880;2023-03-02T07:54:21;-0.20;99.90
12634;DHT22;6382;48.614;8.880;2023-03-02T07:56:47;-0.20;99.90
12634;DHT22;6382;48.614;8.880;2023-03-02T07:59:14;-0.10;99.90
12634;DHT22;6382;48.614;8.880;2023-03-02T08:01:41;0.70;99.90
12634;DHT22;6382;48.614;8.880;2023-03-02T08:04:07;0.00;99.90
12634;DHT22;6382;48.614;8.880;2023-03-02T08:06:34;0.10;99.90
12634;DHT22;6382;48.614;8.880;2023-03-02T08:09:02;0.20;99.90
12634;DHT22;6382;48.614;8.880;2023-03-02T08:11:28;0.20;99.90
12634;DHT22;6382;48.614;8.880;2023-03-02T08:13:58;0.30;99.90
12634;DHT22;6382;48.614;8.880;2023-03-02T08:16:24;0.30;99.90
12634;DHT22;6382;48.614;8.880;2023-03-02T08:18:52;0.40;99.90
12634;DHT22;6382;48.614;8.880;2023-03-02T08:21:19;0.40;99.90
12634;DHT22;6382;48.614;8.880;2023-03-02T08:23:46;0.50;99.90
12634;DHT22;6382;48.614;8.880;2023-03-02T08:26:13;0.50;99.90
12634;DHT22;6382;48.614;8.880;2023-03-02T08:28:43;0.60;99.90
12634;DHT22;6382;48.614;8.880;2023-03-02T08:31:09;0.60;99.90
12634;DHT22;6382;48.614;8.880;2023-03-02T08:33:37;0.60;99.90
12634;DHT22;6382;48.614;8.880;2023-03-02T08:36:08;0.60;99.90
12634;DHT22;6382;48.614;8.880;2023-03-02T08:38:36;0.60;99.90
12634;DHT22;6382;48.614;8.880;2023-03-02T08:41:03;0.70;99.90
12634;DHT22;6382;48.614;8.880;2023-03-02T08:43:32;0.70;99.90
12634;DHT22;6382;48.614;8.880;2023-03-02T08:45:59;1.10;99.90
12634;DHT22;6382;48.614;8.880;2023-03-02T08:48:26;0.80;99.90
12634;DHT22;6382;48.614;8.880;2023-03-02T08:51:26;0.80;99.90
12634;DHT22;6382;48.614;8.880;2023-03-02T08:53:46;0.70;99.90
12634;DHT22;6382;48.614;8.880;2023-03-02T08:56:23;0.80;99.90
12634;DHT22;6382;48.614;8.880;2023-03-02T08:58:51;-0.20;99.90
12634;DHT22;6382;48.614;8.880;2023-03-02T09:01:22;0.80;99.90
12634;DHT22;6382;48.614;8.880;2023-03-02T09:03:49;0.90;99.90
12634;DHT22;6382;48.614;8.880;2023-03-02T09:06:16;0.90;99.90
12634;DHT22;6382;48.614;8.880;2023-03-02T09:08:43;1.00;99.90
12634;DHT22;6382;48.614;8.880;2023-03-02T09:11:10;1.00;99.90
12634;DHT22;6382;48.614;8.880;2023-03-02T09:13:36;1.10;99.90
12634;DHT22;6382;48.614;8.880;2023-03-02T09:16:03;1.10;99.90
12634;DHT22;6382;48.614;8.880;2023-03-02T09:18:30;1.10;99.90
12634;DHT22;6382;48.614;8.880;2023-03-02T09:20:57;1.30;99.90
12634;DHT22;6382;48.614;8.880;2023-03-02T09:23:24;1.30;99.90
12634;DHT22;6382;48.614;8.880;2023-03-02T09:25:51;1.40;99.90
12634;DHT22;6382;48.614;8.880;2023-03-02T09:28:18;1.40;99.90
12634;DHT22;6382;48.614;8.880;2023-03-02T09:30:48;1.50;99.90
12634;DHT22;6382;48.614;8.880;2023-03-02T09:33:15;1.60;99.90
12634;DHT22;6382;48.614;8.880;2023-03-02T09:35:42;1.70;99.90
12634;DHT22;6382;48.614;8.880;2023-03-02T09:38:08;1.60;99.90
12634;DHT22;6382;48.614;8.880;2023-03-02T09:40:39;2.20;99.90
12634;DHT22;6382;48.614;8.880;2023-03-02T09:43:20;1.80;99.90
12634;DHT22;6382;48.614;8.880;2023-03-02T09:56:26;2.10;99.90
12634;DHT22;6382;48.614;8.880;2023-03-02T10:01:40;2.20;99.90
12634;DHT22;6382;48.614;8.880;2023-03-02T10:04:25;2.20;99.90
12634;DHT22;6382;48.614;8.880;2023-03-02T10:06:55;2.30;99.90
12634;DHT22;6382;48.614;8.880;2023-03-02T10:09:21;2.40;99.90
12634;DHT22;6382;48.614;8.880;2023-03-02T10:14:41;2.50;99.90
12634;DHT22;6382;48.614;8.880;2023-03-02T10:19:38;2.80;99.90
12634;DHT22;6382;48.614;8.880;2023-03-02T10:22:18;2.80;99.90
12634;DHT22;6382;48.614;8.880;2023-03-02T10:30:05;2.90;99.90
12634;DHT22;6382;48.614;8.880;2023-03-02T10:32:37;3.00;99.90
12634;DHT22;6382;48.614;8.880;2023-03-02T10:35:16;3.00;99.90
12634;DHT22;6382;48.614;8.880;2023-03-02T10:37:43;3.10;99.90
12634;DHT22;6382;48.614;8.880;2023-03-02T10:40:14;4.50;99.90
12634;DHT22;6382;48.614;8.880;2023-03-02T10:42:46;3.10;99.90
12634;DHT22;6382;48.614;8.880;2023-03-02T10:45:26;3.30;99.90
12634;DHT22;6382;48.614;8.880;2023-03-02T10:48:06;3.40;99.90
12634;DHT22;6382;48.614;8.880;2023-03-02T10:50:33;3.40;99.90
12634;DHT22;6382;48.614;8.880;2023-03-02T10:53:00;3.50;99.90
12634;DHT22;6382;48.614;8.880;2023-03-02T10:55:31;3.50;99.90
12634;DHT22;6382;48.614;8.880;2023-03-02T10:57:59;4.30;99.90
12634;DHT22;6382;48.614;8.880;2023-03-02T11:00:27;3.50;99.90
12634;DHT22;6382;48.614;8.880;2023-03-02T11:02:59;3.50;99.90
12634;DHT22;6382;48.614;8.880;2023-03-02T11:05:30;3.50;99.90
12634;DHT22;6382;48.614;8.880;2023-03-02T11:08:15;3.60;99.90
12634;DHT22;6382;48.614;8.880;2023-03-02T11:13:35;3.60;99.90
12634;DHT22;6382;48.614;8.880;2023-03-02T11:16:03;3.70;99.90
12634;DHT22;6382;48.614;8.880;2023-03-02T11:21:02;3.60;99.90
12634;DHT22;6382;48.614;8.880;2023-03-02T11:26:01;3.80;99.90
12634;DHT22;6382;48.614;8.880;2023-03-02T11:28:39;3.80;99.90
12634;DHT22;6382;48.614;8.880;2023-03-02T11:31:09;3.90;99.90
12634;DHT22;6382;48.614;8.880;2023-03-02T11:33:42;3.90;99.90
12634;DHT22;6382;48.614;8.880;2023-03-02T11:36:16;3.90;99.90
12634;DHT22;6382;48.614;8.880;2023-03-02T11:38:52;3.80;99.90
12634;DHT22;6382;48.614;8.880;2023-03-02T11:41:25;3.80;99.90
12634;DHT22;6382;48.614;8.880;2023-03-02T11:43:55;3.90;99.90
12634;DHT22;6382;48.614;8.880;2023-03-02T11:46:24;3.90;99.90
12634;DHT22;6382;48.614;8.880;2023-03-02T11:48:53;4.50;99.90
12634;DHT22;6382;48.614;8.880;2023-03-02T11:51:22;4.10;99.90
12634;DHT22;6382;48.614;8.880;2023-03-02T11:56:54;4.10;99.90
12634;DHT22;6382;48.614;8.880;2023-03-02T11:59:21;4.30;99.90
12634;DHT22;6382;48.614;8.880;2023-03-02T12:01:49;4.20;99.90
12634;DHT22;6382;48.614;8.880;2023-03-02T12:04:30;4.30;99.90
12634;DHT22;6382;48.614;8.880;2023-03-02T12:06:59;4.40;99.90
12634;DHT22;6382;48.614;8.880;2023-03-02T12:09:33;5.10;99.90
12634;DHT22;6382;48.614;8.880;2023-03-02T12:14:46;4.70;99.90
12634;DHT22;6382;48.614;8.880;2023-03-02T12:19:49;4.80;99.90
12634;DHT22;6382;48.614;8.880;2023-03-02T12:22:24;4.90;99.90
12634;DHT22;6382;48.614;8.880;2023-03-02T12:24:58;4.90;99.90
12634;DHT22;6382;48.614;8.880;2023-03-02T12:27:26;5.00;99.90
12634;DHT22;6382;48.614;8.880;2023-03-02T12:30:07;4.90;99.90
12634;DHT22;6382;48.614;8.880;2023-03-02T12:32:35;4.80;99.90
12634;DHT22;6382;48.614;8.880;2023-03-02T12:40:24;4.60;99.90
12634;DHT22;6382;48.614;8.880;2023-03-02T12:48:27;4.80;99.90
12634;DHT22;6382;48.614;8.880;2023-03-02T12:50:58;4.70;99.90
12634;DHT22;6382;48.614;8.880;2023-03-02T12:53:26;4.60;99.90
12634;DHT22;6382;48.614;8.880;2023-03-02T12:55:53;4.70;99.90
12634;DHT22;6382;48.614;8.880;2023-03-02T12:58:24;6.20;99.90
12634;DHT22;6382;48.614;8.880;2023-03-02T13:00:57;4.90;99.90
12634;DHT22;6382;48.614;8.880;2023-03-02T13:03:25;5.00;99.90
12634;DHT22;6382;48.614;8.880;2023-03-02T13:06:02;5.10;99.90
12634;DHT22;6382;48.614;8.880;2023-03-02T13:08:29;5.10;99.90
12634;DHT22;6382;48.614;8.880;2023-03-02T13:10:57;5.20;99.90
12634;DHT22;6382;48.614;8.880;2023-03-02T13:13:35;5.20;99.90
12634;DHT22;6382;48.614;8.880;2023-03-02T13:16:03;5.20;99.90
12634;DHT22;6382;48.614;8.880;2023-03-02T13:18:33;5.00;99.90
12634;DHT22;6382;48.614;8.880;2023-03-02T13:21:01;4.90;99.90
12634;DHT22;6382;48.614;8.880;2023-03-02T13:23:29;4.90;99.90
12634;DHT22;6382;48.614;8.880;2023-03-02T13:25:57;4.90;99.90
12634;DHT22;6382;48.614;8.880;2023-03-02T13:28:31;4.80;99.90
12634;DHT22;6382;48.614;8.880;2023-03-02T13:31:21;4.60;99.90
12634;DHT22;6382;48.614;8.880;2023-03-02T13:33:47;4.60;99.90
12634;DHT22;6382;48.614;8.880;2023-03-02T13:36:49;4.60;99.90
12634;DHT22;6382;48.614;8.880;2023-03-02T13:39:16;4.60;99.90
12634;DHT22;6382;48.614;8.880;2023-03-02T13:41:50;4.60;99.90
12634;DHT22;6382;48.614;8.880;2023-03-02T13:44:18;4.60;99.90
12634;DHT22;6382;48.614;8.880;2023-03-02T13:46:46;4.70;99.90
12634;DHT22;6382;48.614;8.880;2023-03-02T13:49:13;4.70;99.90
12634;DHT22;6382;48.614;8.880;2023-03-02T13:51:41;4.70;99.90
12634;DHT22;6382;48.614;8.880;2023-03-02T13:54:30;4.70;99.90
12634;DHT22;6382;48.614;8.880;2023-03-02T13:56:57;4.70;99.90
12634;DHT22;6382;48.614;8.880;2023-03-02T13:59:26;4.80;99.90
12634;DHT22;6382;48.614;8.880;2023-03-02T14:01:53;4.80;99.90
12634;DHT22;6382;48.614;8.880;2023-03-02T14:04:20;4.80;99.90
12634;DHT22;6382;48.614;8.880;2023-03-02T14:06:49;4.80;99.90
12634;DHT22;6382;48.614;8.880;2023-03-02T14:09:16;4.80;99.90
12634;DHT22;6382;48.614;8.880;2023-03-02T14:11:43;5.10;99.90
12634;DHT22;6382;48.614;8.880;2023-03-02T14:14:11;4.90;99.90
12634;DHT22;6382;48.614;8.880;2023-03-02T14:16:39;4.90;99.90
12634;DHT22;6382;48.614;8.880;2023-03-02T14:19:08;5.00;99.90
12634;DHT22;6382;48.614;8.880;2023-03-02T14:21:35;4.90;99.90
12634;DHT22;6382;48.614;8.880;2023-03-02T14:24:02;5.00;99.90
12634;DHT22;6382;48.614;8.880;2023-03-02T14:29:28;5.10;99.90
12634;DHT22;6382;48.614;8.880;2023-03-02T14:31:57;5.20;99.90
12634;DHT22;6382;48.614;8.880;2023-03-02T14:34:25;5.20;99.90
12634;DHT22;6382;48.614;8.880;2023-03-02T14:36:52;5.30;99.90
12634;DHT22;6382;48.614;8.880;2023-03-02T14:41:49;5.30;99.90
12634;DHT22;6382;48.614;8.880;2023-03-02T14:44:20;5.40;99.90
12634;DHT22;6382;48.614;8.880;2023-03-02T14:46:47;5.40;99.90
12634;DHT22;6382;48.614;8.880;2023-03-02T14:49:14;5.40;99.90
12634;DHT22;6382;48.614;8.880;2023-03-02T14:51:41;5.40;99.90
12634;DHT22;6382;48.614;8.880;2023-03-02T14:54:11;5.40;99.90
12634;DHT22;6382;48.614;8.880;2023-03-02T14:56:39;5.30;99.90
12634;DHT22;6382;48.614;8.880;2023-03-02T14:59:08;5.30;99.90
12634;DHT22;6382;48.614;8.880;2023-03-02T15:01:37;5.30;99.90
12634;DHT22;6382;48.614;8.880;2023-03-02T15:04:04;5.40;99.90
12634;DHT22;6382;48.614;8.880;2023-03-02T15:06:40;5.40;99.90
12634;DHT22;6382;48.614;8.880;2023-03-02T15:09:09;7.70;99.90
12634;DHT22;6382;48.614;8.880;2023-03-02T15:11:36;5.40;99.90
12634;DHT22;6382;48.614;8.880;2023-03-02T15:14:03;5.40;99.90
12634;DHT22;6382;48.614;8.880;2023-03-02T15:16:29;5.50;99.90
12634;DHT22;6382;48.614;8.880;2023-03-02T15:18:56;5.40;99.90
12634;DHT22;6382;48.614;8.880;2023-03-02T15:21:24;6.30;99.90
12634;DHT22;6382;48.614;8.880;2023-03-02T15:23:51;6.60;99.90
12634;DHT22;6382;48.614;8.880;2023-03-02T15:26:17;5.40;99.90
12634;DHT22;6382;48.614;8.880;2023-03-02T15:28:47;5.40;99.90
12634;DHT22;6382;48.614;8.880;2023-03-02T15:31:14;5.40;99.90
12634;DHT22;6382;48.614;8.880;2023-03-02T15:33:42;5.40;99.90
12634;DHT22;6382;48.614;8.880;2023-03-02T15:36:11;5.30;99.90
12634;DHT22;6382;48.614;8.880;2023-03-02T15:38:38;5.30;99.90
12634;DHT22;6382;48.614;8.880;2023-03-02T15:41:05;5.30;99.90
12634;DHT22;6382;48.614;8.880;2023-03-02T15:43:32;5.30;99.90
12634;DHT22;6382;48.614;8.880;2023-03-02T15:45:59;5.30;99.90
12634;DHT22;6382;48.614;8.880;2023-03-02T15:48:28;5.30;99.90
12634;DHT22;6382;48.614;8.880;2023-03-02T15:50:58;5.30;99.90
12634;DHT22;6382;48.614;8.880;2023-03-02T15:53:26;6.00;99.90
12634;DHT22;6382;48.614;8.880;2023-03-02T15:55:53;5.30;99.90
12634;DHT22;6382;48.614;8.880;2023-03-02T15:58:19;5.20;99.90
12634;DHT22;6382;48.614;8.880;2023-03-02T16:00:47;5.20;99.90
12634;DHT22;6382;48.614;8.880;2023-03-02T16:03:14;5.60;99.90
12634;DHT22;6382;48.614;8.880;2023-03-02T16:05:41;5.10;99.90
12634;DHT22;6382;48.614;8.880;2023-03-02T16:08:08;4.80;99.90
12634;DHT22;6382;48.614;8.880;2023-03-02T16:10:35;5.00;99.90
12634;DHT22;6382;48.614;8.880;2023-03-02T16:13:02;5.00;99.90
12634;DHT22;6382;48.614;8.880;2023-03-02T16:15:30;5.00;99.90
12634;DHT22;6382;48.614;8.880;2023-03-02T16:17:57;4.90;99.90
12634;DHT22;6382;48.614;8.880;2023-03-02T16:20:23;4.90;99.90
12634;DHT22;6382;48.614;8.880;2023-03-02T16:22:50;4.80;99.90
12634;DHT22;6382;48.614;8.880;2023-03-02T16:25:17;4.80;99.90
12634;DHT22;6382;48.614;8.880;2023-03-02T16:27:43;4.70;99.90
12634;DHT22;6382;48.614;8.880;2023-03-02T16:30:13;4.70;99.90
12634;DHT22;6382;48.614;8.880;2023-03-02T16:32:40;4.60;99.90
12634;DHT22;6382;48.614;8.880;2023-03-02T16:35:07;4.60;99.90
12634;DHT22;6382;48.614;8.880;2023-03-02T16:37:34;4.50;99.90
12634;DHT22;6382;48.614;8.880;2023-03-02T16:40:01;4.50;99.90
12634;DHT22;6382;48.614;8.880;2023-03-02T16:42:28;4.60;99.90
12634;DHT22;6382;48.614;8.880;2023-03-02T16:44:55;4.40;99.90
12634;DHT22;6382;48.614;8.880;2023-03-02T16:47:22;4.30;99.90
12634;DHT22;6382;48.614;8.880;2023-03-02T16:49:49;4.20;99.90
12634;DHT22;6382;48.614;8.880;2023-03-02T16:52:15;4.10;99.90
12634;DHT22;6382;48.614;8.880;2023-03-02T16:54:43;4.00;99.90
12634;DHT22;6382;48.614;8.880;2023-03-02T16:57:10;3.90;99.90
12634;DHT22;6382;48.614;8.880;2023-03-02T16:59:37;3.80;99.90
12634;DHT22;6382;48.614;8.880;2023-03-02T17:02:03;3.20;99.90
12634;DHT22;6382;48.614;8.880;2023-03-02T17:04:30;3.60;99.90